Time;durP1;ratioP1;P1;durP2;ratioP2;P2;SDS_P1;SDS_P2;PMS_P1;PMS_P2;Temp;Humidity;BMP_temperature;BMP_pressure;BME280_temperature;BME280_humidity;BME280_pressure;Samples;Min_cycle;Max_cycle;Signal;HPM_P1;HPM_P2
2022/02/12 00:02:02;;;;;;;8.47;6.20;;;17.10;55.30;;;;;;5069375;28;20712;-65
2022/02/12 00:04:45;;;;;;;8.50;5.50;;;17.10;55.20;;;;;;5067914;28;20206;-65
2022/02/12 00:07:17;;;;;;;8.77;5.93;;;17.00;55.20;;;;;;5057484;28;20611;-65
2022/02/12 00:09:47;;;;;;;8.50;5.83;;;17.00;55.10;;;;;;5066755;28;20276;-64
2022/02/12 00:12:22;;;;;;;7.97;5.67;;;17.00;55.20;;;;;;5061638;28;20221;-65
2022/02/12 00:14:56;;;;;;;9.60;5.90;;;17.10;55.20;;;;;;5062389;28;20229;-64
2022/02/12 00:17:25;;;;;;;8.00;5.43;;;17.00;55.20;;;;;;5064102;28;20619;-65
2022/02/12 00:19:52;;;;;;;7.00;5.60;;;17.00;55.10;;;;;;5066054;28;20214;-65
2022/02/12 00:22:23;;;;;;;9.00;6.30;;;17.00;55.10;;;;;;5032616;28;20194;-65
2022/02/12 00:24:54;;;;;;;7.17;5.53;;;17.00;55.10;;;;;;5065060;28;20241;-64
2022/02/12 00:27:26;;;;;;;6.47;5.40;;;17.00;55.20;;;;;;5064336;28;20668;-65
2022/02/12 00:29:59;;;;;;;6.50;5.10;;;17.00;55.10;;;;;;5063041;28;20197;-65
2022/02/12 00:32:30;;;;;;;7.70;5.60;;;17.00;55.80;;;;;;5067513;28;20242;-64
2022/02/12 00:35:01;;;;;;;6.67;5.37;;;17.00;55.20;;;;;;5050726;28;20209;-64
2022/02/12 00:37:40;;;;;;;7.43;5.17;;;17.00;55.10;;;;;;5051286;28;20248;-64
2022/02/12 00:40:13;;;;;;;6.93;5.40;;;17.00;55.20;;;;;;5059832;28;20198;-64
2022/02/12 00:42:44;;;;;;;6.60;5.00;;;17.00;55.00;;;;;;5066362;28;20217;-65
2022/02/12 00:45:15;;;;;;;6.80;5.43;;;17.00;55.10;;;;;;5053029;28;20217;-65
2022/02/12 00:47:44;;;;;;;7.30;5.30;;;17.00;55.10;;;;;;5060431;28;20218;-65
2022/02/12 00:50:15;;;;;;;6.83;4.90;;;16.90;55.10;;;;;;5049414;28;20197;-65
2022/02/12 00:52:44;;;;;;;7.20;5.20;;;16.90;55.00;;;;;;5056355;28;20221;-65
2022/02/12 00:55:16;;;;;;;6.60;4.87;;;16.90;55.10;;;;;;5057251;28;20213;-65
2022/02/12 00:57:45;;;;;;;6.67;5.00;;;16.90;54.90;;;;;;5072716;28;20206;-65
2022/02/12 01:00:15;;;;;;;5.93;4.63;;;16.90;54.90;;;;;;5048067;28;20210;-65
2022/02/12 01:02:49;;;;;;;6.00;4.80;;;16.90;54.90;;;;;;5067082;28;20205;-65
2022/02/12 01:05:17;;;;;;;10.20;5.37;;;16.90;54.80;;;;;;5061550;28;20242;-64
2022/02/12 01:07:47;;;;;;;5.70;4.77;;;16.90;54.90;;;;;;5034678;28;20553;-65
2022/02/12 01:10:15;;;;;;;7.13;4.70;;;16.90;54.90;;;;;;5064572;28;20217;-65
2022/02/12 01:12:46;;;;;;;5.70;4.70;;;16.90;54.70;;;;;;5081892;28;20256;-64
2022/02/12 01:15:16;;;;;;;6.13;4.53;;;16.90;54.70;;;;;;5034285;28;20264;-64
2022/02/12 01:17:48;;;;;;;7.97;5.10;;;16.90;54.70;;;;;;5037801;28;20198;-65
2022/02/12 01:20:18;;;;;;;5.40;4.70;;;16.90;54.70;;;;;;5040895;28;20784;-65
2022/02/12 01:22:48;;;;;;;5.47;4.47;;;16.90;54.80;;;;;;5029519;28;20209;-65
2022/02/12 01:25:20;;;;;;;7.20;4.90;;;16.90;54.70;;;;;;5025739;28;20431;-65
2022/02/12 01:27:50;;;;;;;6.70;4.43;;;16.80;54.70;;;;;;5014443;28;20212;-65
2022/02/12 01:30:20;;;;;;;5.43;4.60;;;16.80;54.60;;;;;;5028184;28;20209;-65
2022/02/12 01:32:51;;;;;;;6.80;4.47;;;16.80;54.60;;;;;;5021956;28;20214;-64
2022/02/12 01:35:24;;;;;;;7.70;4.93;;;16.80;54.60;;;;;;5036160;28;20207;-65
2022/02/12 01:37:58;;;;;;;6.63;4.87;;;16.80;54.60;;;;;;5029515;28;20237;-64
2022/02/12 01:40:27;;;;;;;6.63;4.50;;;16.80;54.50;;;;;;5054785;28;20244;-64
2022/02/12 01:43:02;;;;;;;6.23;4.97;;;16.80;54.50;;;;;;5030603;28;20195;-64
2022/02/12 01:45:35;;;;;;;6.57;4.07;;;16.80;54.50;;;;;;5039038;28;20256;-65
2022/02/12 01:48:04;;;;;;;6.07;4.60;;;16.80;54.70;;;;;;5046096;28;20218;-65
2022/02/12 01:50:33;;;;;;;7.03;4.23;;;16.70;54.60;;;;;;5051333;28;20212;-65
2022/02/12 01:53:06;;;;;;;5.83;4.07;;;16.80;54.60;;;;;;5027581;28;20268;-64
2022/02/12 01:55:37;;;;;;;7.13;4.67;;;16.80;54.50;;;;;;5042191;28;20210;-65
2022/02/12 01:58:09;;;;;;;6.00;4.40;;;16.70;54.40;;;;;;5040845;28;20835;-64
2022/02/12 02:00:39;;;;;;;6.63;4.17;;;16.70;54.40;;;;;;5032396;28;20305;-64
2022/02/12 02:03:12;;;;;;;6.87;3.80;;;16.80;54.50;;;;;;5038287;28;20217;-64
2022/02/12 02:05:41;;;;;;;6.23;4.40;;;16.70;54.40;;;;;;5027806;28;20259;-64
2022/02/12 02:08:12;;;;;;;6.70;3.63;;;16.70;54.40;;;;;;5031186;28;20198;-64
2022/02/12 02:10:41;;;;;;;5.63;4.13;;;16.70;54.30;;;;;;5038174;28;20186;-65
2022/02/12 02:13:23;;;;;;;6.13;4.30;;;16.70;54.40;;;;;;5026259;28;20234;-64
2022/02/12 02:15:54;;;;;;;5.47;4.47;;;16.70;54.30;;;;;;5062040;28;20228;-65
2022/02/12 02:18:25;;;;;;;8.33;4.17;;;16.70;54.40;;;;;;5052918;28;20201;-65
2022/02/12 02:20:55;;;;;;;6.57;4.03;;;16.70;54.20;;;;;;5069325;28;20194;-65
2022/02/12 02:23:23;;;;;;;9.57;4.47;;;16.70;54.30;;;;;;5050463;28;20279;-64
2022/02/12 02:25:53;;;;;;;6.90;4.37;;;16.70;54.30;;;;;;5070330;28;20201;-64
2022/02/12 02:28:24;;;;;;;6.53;4.40;;;16.70;54.30;;;;;;5066128;28;20247;-64
2022/02/12 02:30:57;;;;;;;7.40;4.30;;;16.70;54.30;;;;;;5056233;28;20186;-64
2022/02/12 02:33:29;;;;;;;6.03;4.30;;;16.60;54.10;;;;;;5054978;28;20225;-65
2022/02/12 02:36:12;;;;;;;7.43;4.10;;;16.70;54.20;;;;;;5063464;28;20214;-65
2022/02/12 02:38:42;;;;;;;6.33;4.23;;;16.70;54.20;;;;;;5065522;28;20217;-65
2022/02/12 02:41:15;;;;;;;5.53;4.30;;;16.60;54.20;;;;;;5049254;28;20283;-64
2022/02/12 02:43:46;;;;;;;6.33;4.20;;;16.60;54.20;;;;;;5064804;28;20217;-64
2022/02/12 02:46:19;;;;;;;7.03;4.70;;;16.60;54.10;;;;;;5070176;28;20206;-64
2022/02/12 02:48:49;;;;;;;5.17;4.33;;;16.60;54.10;;;;;;5063880;28;20222;-64
2022/02/12 02:57:05;;;;;;;6.60;4.30;;;16.60;54.10;;;;;;5071650;28;20192;-64
2022/02/12 02:59:33;;;;;;;5.73;4.30;;;16.60;54.10;;;;;;5051867;28;20202;-64
2022/02/12 03:02:04;;;;;;;5.63;4.00;;;16.50;54.00;;;;;;5051363;28;20198;-65
2022/02/12 03:04:36;;;;;;;6.60;4.30;;;16.60;54.10;;;;;;5061839;28;20216;-64
2022/02/12 03:07:08;;;;;;;7.40;4.70;;;16.60;54.10;;;;;;5055369;28;20197;-64
2022/02/12 03:09:39;;;;;;;6.83;4.00;;;16.60;54.00;;;;;;5053362;28;20213;-64
2022/02/12 03:12:12;;;;;;;6.07;4.30;;;16.50;53.90;;;;;;5065210;28;20226;-64
2022/02/12 03:14:44;;;;;;;5.47;3.93;;;16.60;54.10;;;;;;5079879;28;20686;-64
2022/02/12 03:17:15;;;;;;;6.43;4.43;;;16.50;54.00;;;;;;5063133;28;20201;-64
2022/02/12 03:19:48;;;;;;;6.70;4.60;;;16.50;54.00;;;;;;5068477;28;20678;-64
2022/02/12 03:22:17;;;;;;;6.20;4.37;;;16.50;54.00;;;;;;5068493;28;20198;-64
2022/02/12 03:24:48;;;;;;;5.87;4.20;;;16.50;54.00;;;;;;5079553;28;20662;-64
2022/02/12 03:27:15;;;;;;;4.93;3.77;;;16.50;54.00;;;;;;5072176;28;20197;-64
2022/02/12 03:29:43;;;;;;;8.23;4.30;;;16.50;54.00;;;;;;5068402;28;20209;-64
2022/02/12 03:32:12;;;;;;;7.10;4.20;;;16.50;54.10;;;;;;5051842;28;20209;-64
2022/02/12 03:35:03;;;;;;;6.83;4.03;;;16.50;53.90;;;;;;5061807;28;20213;-64
2022/02/12 03:37:31;;;;;;;6.63;3.90;;;16.50;53.90;;;;;;5054656;28;20271;-65
2022/02/12 03:40:00;;;;;;;6.53;3.67;;;16.50;54.00;;;;;;5060474;28;20182;-64
2022/02/12 03:42:30;;;;;;;6.03;4.33;;;16.50;54.00;;;;;;5065677;28;20562;-64
2022/02/12 03:44:57;;;;;;;5.40;3.83;;;16.50;54.00;;;;;;5068381;28;20281;-64
2022/02/12 03:47:27;;;;;;;4.40;3.50;;;16.40;53.90;;;;;;5062707;28;20225;-64
2022/02/12 03:49:58;;;;;;;5.53;3.70;;;16.50;53.90;;;;;;5068275;28;20209;-64
2022/02/12 03:52:28;;;;;;;6.53;3.97;;;16.40;53.90;;;;;;5054607;28;20190;-64
2022/02/12 03:54:58;;;;;;;6.30;4.53;;;16.40;53.90;;;;;;5066913;28;20597;-64
2022/02/12 03:57:27;;;;;;;7.60;4.23;;;16.40;53.90;;;;;;5069888;28;20190;-64
2022/02/12 03:59:57;;;;;;;5.93;4.13;;;16.40;53.90;;;;;;5060066;28;20231;-64
2022/02/12 04:02:28;;;;;;;6.43;3.80;;;16.40;53.90;;;;;;5071651;28;20229;-64
2022/02/12 04:04:57;;;;;;;7.10;4.10;;;16.40;54.10;;;;;;5068856;28;20248;-64
2022/02/12 04:07:31;;;;;;;6.07;4.30;;;16.40;53.90;;;;;;5066412;28;20202;-64
2022/02/12 04:10:01;;;;;;;5.70;3.53;;;16.40;54.00;;;;;;5067048;28;20209;-64
2022/02/12 04:12:31;;;;;;;5.90;3.87;;;16.40;54.00;;;;;;5051046;28;20631;-64
2022/02/12 04:15:03;;;;;;;5.30;3.73;;;16.40;54.00;;;;;;5048211;28;20231;-64
2022/02/12 04:17:34;;;;;;;5.50;3.90;;;16.40;53.90;;;;;;5065980;28;20206;-64
2022/02/12 04:20:09;;;;;;;6.10;3.70;;;16.40;53.90;;;;;;5062243;28;20189;-64
2022/02/12 04:22:41;;;;;;;7.17;4.03;;;16.40;53.90;;;;;;5066743;28;20210;-64
2022/02/12 04:25:13;;;;;;;8.17;4.37;;;16.40;53.80;;;;;;5046829;28;20213;-64
2022/02/12 04:27:42;;;;;;;5.83;3.57;;;16.40;53.90;;;;;;5071711;28;20311;-64
2022/02/12 04:30:16;;;;;;;6.27;4.13;;;16.30;53.80;;;;;;5048952;28;20217;-65
2022/02/12 04:32:58;;;;;;;6.47;3.93;;;16.40;53.90;;;;;;5061238;28;20618;-64
2022/02/12 04:35:30;;;;;;;6.77;4.13;;;16.30;53.80;;;;;;5048650;28;20202;-64
2022/02/12 04:38:00;;;;;;;6.90;4.27;;;16.40;53.80;;;;;;5064479;28;20667;-64
2022/02/12 04:40:33;;;;;;;6.30;3.90;;;16.30;53.80;;;;;;5040092;28;20201;-64
2022/02/12 04:43:25;;;;;;;5.80;3.60;;;16.30;53.90;;;;;;5050851;28;20392;-64
2022/02/12 04:46:00;;;;;;;5.27;3.70;;;16.30;53.90;;;;;;5063967;28;20198;-65
2022/02/12 04:48:33;;;;;;;5.67;3.77;;;16.30;53.80;;;;;;5054382;28;20283;-65
2022/02/12 04:51:06;;;;;;;6.57;3.97;;;16.30;53.80;;;;;;5055632;28;20276;-64
2022/02/12 04:53:36;;;;;;;6.47;3.70;;;16.30;53.80;;;;;;5060855;28;20612;-65
2022/02/12 04:56:12;;;;;;;6.53;4.07;;;16.30;53.80;;;;;;5065625;28;20292;-64
2022/02/12 04:58:43;;;;;;;5.57;3.53;;;16.30;53.90;;;;;;5065798;28;20190;-64
2022/02/12 05:01:25;;;;;;;6.67;3.80;;;16.30;53.80;;;;;;5046172;28;20670;-64
2022/02/12 05:03:57;;;;;;;5.60;3.40;;;16.30;53.90;;;;;;5064092;28;20280;-65
2022/02/12 05:06:38;;;;;;;5.57;3.67;;;16.20;53.90;;;;;;5064373;28;20603;-64
2022/02/12 05:09:08;;;;;;;4.97;3.77;;;16.30;53.80;;;;;;5047244;28;20205;-65
2022/02/12 05:11:40;;;;;;;5.63;4.10;;;16.30;53.80;;;;;;5046017;28;20300;-64
2022/02/12 05:14:10;;;;;;;5.37;3.60;;;16.20;53.70;;;;;;5034763;28;20545;-65
2022/02/12 05:16:49;;;;;;;5.93;3.77;;;16.30;53.70;;;;;;5064666;28;20204;-64
2022/02/12 05:19:24;;;;;;;5.10;3.70;;;16.20;53.60;;;;;;5051844;28;20659;-65
2022/02/12 05:21:52;;;;;;;6.10;3.63;;;16.20;53.60;;;;;;5050233;28;20204;-64
2022/02/12 05:24:19;;;;;;;5.70;3.60;;;16.20;53.70;;;;;;5044236;28;20214;-64
2022/02/12 05:26:49;;;;;;;5.87;4.23;;;16.20;53.50;;;;;;5065243;28;20190;-64
2022/02/12 05:29:19;;;;;;;5.80;3.47;;;16.20;53.50;;;;;;5048151;28;20327;-65
2022/02/12 05:31:51;;;;;;;8.07;3.60;;;16.20;53.40;;;;;;5066041;28;20204;-64
2022/02/12 05:34:24;;;;;;;5.70;3.83;;;16.20;53.40;;;;;;5059242;28;20233;-65
2022/02/12 05:36:52;;;;;;;7.23;4.13;;;16.20;53.40;;;;;;5061118;28;20206;-65
2022/02/12 05:39:20;;;;;;;6.17;3.60;;;16.20;53.30;;;;;;5046159;28;20198;-64
2022/02/12 05:42:00;;;;;;;5.07;3.53;;;16.20;53.30;;;;;;5051003;28;20537;-64
2022/02/12 05:44:28;;;;;;;5.83;3.60;;;16.10;53.30;;;;;;5063909;28;20220;-64
2022/02/12 05:47:16;;;;;;;4.97;3.80;;;16.20;53.30;;;;;;5035780;28;20293;-64
2022/02/12 05:49:44;;;;;;;5.97;3.53;;;16.10;53.30;;;;;;5063737;28;20197;-64
2022/02/12 05:52:14;;;;;;;5.37;3.17;;;16.20;53.30;;;;;;5063370;28;20215;-64
2022/02/12 05:54:48;;;;;;;4.63;3.07;;;16.10;53.10;;;;;;5057093;28;20224;-64
2022/02/12 05:57:25;;;;;;;4.63;3.40;;;16.20;53.20;;;;;;5053630;28;20198;-64
2022/02/12 05:59:55;;;;;;;5.73;3.97;;;16.10;53.10;;;;;;5059350;28;20282;-64
2022/02/12 06:02:25;;;;;;;5.80;3.70;;;16.10;53.00;;;;;;5065425;28;20642;-64
2022/02/12 06:04:55;;;;;;;4.67;3.20;;;16.10;53.00;;;;;;5074988;28;20646;-64
2022/02/12 06:07:24;;;;;;;5.93;3.43;;;16.10;53.00;;;;;;5043423;28;20216;-64
2022/02/12 06:09:59;;;;;;;6.13;3.40;;;16.10;53.10;;;;;;5065301;28;20202;-64
2022/02/12 06:12:28;;;;;;;4.50;3.30;;;16.10;53.10;;;;;;5038756;28;20700;-64
2022/02/12 06:14:59;;;;;;;5.90;3.50;;;16.10;53.00;;;;;;5057561;28;20241;-64
2022/02/12 06:17:32;;;;;;;4.23;3.20;;;16.10;53.00;;;;;;5041825;28;20205;-65
2022/02/12 06:20:03;;;;;;;6.57;3.83;;;16.10;53.00;;;;;;5059959;28;20204;-64
2022/02/12 06:22:36;;;;;;;5.53;3.17;;;16.10;52.90;;;;;;5032374;28;20201;-64
2022/02/12 06:25:04;;;;;;;6.10;3.67;;;16.10;52.90;;;;;;5041038;28;20251;-64
2022/02/12 06:27:36;;;;;;;4.97;3.53;;;16.10;52.90;;;;;;5054746;28;20259;-64
2022/02/12 06:30:05;;;;;;;5.23;3.57;;;16.10;53.00;;;;;;5067513;28;20197;-64
2022/02/12 06:32:32;;;;;;;5.73;3.40;;;16.10;52.90;;;;;;5053375;28;20202;-64
2022/02/12 06:35:01;;;;;;;4.87;3.23;;;16.10;52.90;;;;;;5066941;28;20228;-64
2022/02/12 06:37:33;;;;;;;5.77;3.57;;;16.00;52.90;;;;;;5068129;28;20243;-64
2022/02/12 06:40:03;;;;;;;5.30;3.67;;;16.10;53.00;;;;;;5062776;28;20210;-64
2022/02/12 06:42:32;;;;;;;6.47;3.50;;;16.00;53.00;;;;;;5052873;28;20203;-64
2022/02/12 06:45:06;;;;;;;6.90;3.47;;;16.00;53.10;;;;;;5071169;28;20208;-64
2022/02/12 06:47:35;;;;;;;5.87;3.63;;;16.10;53.10;;;;;;5063894;28;20239;-64
2022/02/12 06:50:06;;;;;;;4.03;3.13;;;16.00;53.20;;;;;;5050948;28;20329;-64
2022/02/12 06:52:43;;;;;;;3.57;2.73;;;16.00;53.20;;;;;;5062088;28;20224;-64
2022/02/12 06:55:15;;;;;;;6.00;3.43;;;16.00;53.20;;;;;;5032357;28;20257;-64
2022/02/12 06:57:45;;;;;;;4.83;3.53;;;16.00;53.20;;;;;;5065867;28;20209;-64
2022/02/12 07:00:15;;;;;;;5.00;3.17;;;16.00;53.30;;;;;;5052972;28;20214;-64
2022/02/12 07:02:51;;;;;;;5.73;3.50;;;16.00;53.30;;;;;;5053138;28;20202;-64
2022/02/12 07:05:30;;;;;;;3.97;2.80;;;16.00;53.30;;;;;;5066404;28;20263;-64
2022/02/12 07:07:58;;;;;;;5.80;3.43;;;16.00;53.30;;;;;;5067915;28;20198;-64
2022/02/12 07:10:29;;;;;;;6.77;3.60;;;16.00;53.40;;;;;;5053125;28;20201;-64
2022/02/12 07:13:03;;;;;;;3.33;2.87;;;16.00;53.40;;;;;;5054018;28;20224;-65
2022/02/12 07:15:30;;;;;;;6.07;3.50;;;16.00;53.40;;;;;;5062047;28;20242;-64
2022/02/12 07:18:01;;;;;;;4.60;2.83;;;16.00;53.50;;;;;;5027936;28;20192;-64
2022/02/12 07:20:32;;;;;;;3.93;3.00;;;16.00;53.60;;;;;;5027698;28;20198;-64
2022/02/12 07:23:03;;;;;;;4.17;3.17;;;16.00;53.50;;;;;;5041216;28;20248;-63
2022/02/12 07:25:34;;;;;;;4.27;3.00;;;15.90;53.40;;;;;;5031217;28;20198;-64
2022/02/12 07:28:03;;;;;;;4.50;3.03;;;15.90;53.50;;;;;;5049166;28;20202;-64
2022/02/12 07:30:31;;;;;;;4.90;3.00;;;16.00;53.40;;;;;;5047845;28;20220;-64
2022/02/12 07:33:03;;;;;;;4.30;3.07;;;16.00;53.50;;;;;;5042949;28;20202;-64
2022/02/12 07:35:30;;;;;;;5.90;3.30;;;15.90;53.40;;;;;;5036171;28;20272;-63
2022/02/12 07:38:00;;;;;;;4.93;2.73;;;15.90;53.40;;;;;;5031220;28;20583;-64
2022/02/12 07:40:30;;;;;;;4.47;3.03;;;16.00;53.40;;;;;;5044737;28;20600;-64
2022/02/12 07:43:02;;;;;;;5.10;3.20;;;16.00;53.40;;;;;;5046107;28;20539;-64
2022/02/12 07:45:42;;;;;;;5.87;2.67;;;16.00;53.30;;;;;;5047631;28;20823;-64
2022/02/12 07:48:20;;;;;;;5.40;3.53;;;16.00;53.40;;;;;;5032597;28;20207;-64
2022/02/12 07:50:53;;;;;;;4.67;2.83;;;16.00;53.30;;;;;;5032346;28;20201;-64
2022/02/12 07:53:24;;;;;;;5.60;3.30;;;16.00;53.40;;;;;;5035249;28;20255;-64
2022/02/12 07:55:56;;;;;;;4.70;3.03;;;16.00;53.30;;;;;;5049037;28;20222;-64
2022/02/12 07:58:26;;;;;;;5.50;3.37;;;16.00;53.30;;;;;;5047290;28;20209;-64
2022/02/12 08:00:56;;;;;;;5.97;3.20;;;16.00;53.30;;;;;;5043728;28;20230;-64
2022/02/12 08:03:26;;;;;;;5.80;2.97;;;16.00;53.40;;;;;;5045721;28;20210;-64
2022/02/12 08:05:59;;;;;;;6.03;3.07;;;16.00;53.30;;;;;;5036045;28;20264;-64
2022/02/12 08:08:30;;;;;;;3.60;2.37;;;15.90;53.20;;;;;;5045705;28;20210;-64
2022/02/12 08:11:53;;;;;;;4.87;2.77;;;15.90;53.20;;;;;;5029509;28;20252;-64
2022/02/12 08:13:55;;;;;;;4.50;3.80;;;16.00;53.30;;;;;;5039195;28;20714;-64
2022/02/12 08:16:28;;;;;;;4.47;2.60;;;16.00;53.30;;;;;;5043190;28;20229;-64
2022/02/12 08:19:01;;;;;;;3.23;2.27;;;15.90;53.20;;;;;;5047493;28;20210;-64
2022/02/12 08:21:31;;;;;;;4.90;2.70;;;16.00;53.20;;;;;;5041599;28;20195;-64
2022/02/12 08:24:14;;;;;;;6.47;2.80;;;15.90;53.10;;;;;;5041884;28;20565;-64
2022/02/12 08:26:48;;;;;;;4.10;2.87;;;15.90;53.10;;;;;;5047772;28;20253;-64
2022/02/12 08:29:28;;;;;;;4.50;2.47;;;15.90;53.00;;;;;;5045623;28;20582;-64
2022/02/12 08:31:59;;;;;;;5.03;2.27;;;16.00;53.10;;;;;;5048100;28;20233;-65
2022/02/12 08:34:31;;;;;;;3.43;2.53;;;16.00;53.00;;;;;;5051465;28;20210;-64
2022/02/12 08:37:01;;;;;;;3.13;2.40;;;15.90;53.00;;;;;;5043521;28;20210;-64
2022/02/12 08:39:29;;;;;;;4.40;2.50;;;15.90;53.10;;;;;;5044366;28;20195;-65
2022/02/12 08:42:00;;;;;;;3.83;2.47;;;16.00;53.10;;;;;;5047119;28;20221;-63
2022/02/12 08:44:30;;;;;;;3.27;2.30;;;16.00;53.10;;;;;;5044355;28;20195;-64
2022/02/12 08:47:04;;;;;;;3.17;2.20;;;16.00;53.10;;;;;;5042391;28;20201;-65
2022/02/12 08:49:34;;;;;;;3.97;2.60;;;16.00;53.10;;;;;;5046529;28;20194;-64
2022/02/12 08:52:06;;;;;;;4.60;2.53;;;16.00;53.10;;;;;;5053913;28;20219;-64
2022/02/12 08:54:37;;;;;;;5.47;2.70;;;15.90;53.00;;;;;;5045149;28;20221;-65
2022/02/12 08:57:08;;;;;;;5.83;2.93;;;16.00;53.00;;;;;;5057555;28;20214;-64
2022/02/12 08:59:39;;;;;;;7.73;2.40;;;16.00;53.00;;;;;;5040903;28;20221;-64
2022/02/12 09:02:15;;;;;;;5.37;2.67;;;16.00;53.40;;;;;;5046383;28;20229;-64
2022/02/12 09:04:45;;;;;;;4.90;2.53;;;15.90;53.50;;;;;;5045261;28;20206;-65
2022/02/12 09:07:24;;;;;;;4.30;2.30;;;15.90;53.60;;;;;;5041418;28;20849;-64
2022/02/12 09:09:58;;;;;;;7.47;2.23;;;15.90;53.60;;;;;;5049828;28;20214;-64
2022/02/12 09:12:35;;;;;;;4.10;2.37;;;16.00;53.50;;;;;;5025649;28;20550;-64
2022/02/12 09:15:07;;;;;;;5.23;2.40;;;16.00;53.60;;;;;;5038471;28;20277;-64
2022/02/12 09:17:37;;;;;;;3.97;2.10;;;15.90;53.50;;;;;;5045269;28;20527;-64
2022/02/12 09:20:08;;;;;;;4.17;2.30;;;15.90;53.40;;;;;;5052616;28;20256;-64
2022/02/12 09:22:40;;;;;;;4.63;2.40;;;15.90;53.40;;;;;;5029339;28;20190;-64
2022/02/12 09:25:14;;;;;;;3.90;2.20;;;16.00;53.40;;;;;;5040904;28;20206;-65
2022/02/12 09:27:43;;;;;;;4.80;1.97;;;15.90;53.40;;;;;;5048345;28;20206;-64
2022/02/12 09:30:27;;;;;;;3.43;1.70;;;15.90;53.40;;;;;;5049477;28;20213;-64
2022/02/12 09:32:57;;;;;;;4.93;2.23;;;16.00;53.40;;;;;;5049035;28;20209;-64
2022/02/12 09:35:53;;;;;;;18.33;6.00;;;15.90;53.50;;;;;;5049916;28;20234;-64
2022/02/12 09:38:28;;;;;;;20.07;6.63;;;16.00;54.00;;;;;;5035513;28;20814;-65
2022/02/12 09:40:58;;;;;;;19.60;6.07;;;16.00;54.20;;;;;;5045925;28;20205;-63
2022/02/12 09:43:30;;;;;;;19.57;6.40;;;16.00;54.70;;;;;;5048005;28;20201;-65
2022/02/12 09:46:07;;;;;;;25.73;6.90;;;15.90;54.90;;;;;;5024228;28;20210;-64
2022/02/12 09:48:44;;;;;;;19.03;6.73;;;16.00;55.20;;;;;;5040885;28;20226;-63
2022/02/12 09:51:15;;;;;;;19.23;6.20;;;15.90;55.10;;;;;;5026932;28;20199;-66
2022/02/12 09:53:47;;;;;;;24.17;6.47;;;16.00;55.50;;;;;;5041453;28;20207;-67
2022/02/12 09:56:19;;;;;;;24.27;7.53;;;16.00;55.60;;;;;;5045390;28;20214;-65
2022/02/12 09:58:51;;;;;;;28.07;6.50;;;16.00;55.50;;;;;;5047325;28;20289;-65
2022/02/12 10:01:19;;;;;;;17.50;6.47;;;16.00;55.20;;;;;;5037622;28;20210;-65
2022/02/12 10:03:52;;;;;;;18.83;6.07;;;16.00;55.00;;;;;;5037064;28;20273;-66
2022/02/12 10:06:42;;;;;;;21.13;6.50;;;16.00;54.80;;;;;;5053705;28;20328;-65
2022/02/12 10:09:17;;;;;;;16.67;6.33;;;16.00;54.70;;;;;;5046269;28;20202;-65
2022/02/12 10:11:54;;;;;;;15.90;5.50;;;16.00;54.60;;;;;;5041305;28;20197;-66
2022/02/12 10:14:25;;;;;;;14.95;5.60;;;16.00;54.50;;;;;;5050294;28;20666;-66
2022/02/12 10:17:02;;;;;;;14.53;5.37;;;16.00;54.40;;;;;;5030446;28;20238;-65
2022/02/12 10:19:47;;;;;;;16.83;5.50;;;16.00;54.40;;;;;;5066749;28;20526;-67
2022/02/12 10:22:27;;;;;;;29.53;6.27;;;16.00;54.40;;;;;;5049932;28;20217;-66
2022/02/12 10:25:04;;;;;;;24.90;7.13;;;16.00;54.50;;;;;;5053346;28;20673;-65
2022/02/12 10:27:37;;;;;;;20.70;6.30;;;16.00;54.50;;;;;;5058202;28;20216;-65
2022/02/12 10:30:26;;;;;;;19.73;6.80;;;16.00;54.80;;;;;;5060470;28;20273;-66
2022/02/12 10:33:04;;;;;;;22.60;6.60;;;16.00;54.90;;;;;;5041491;28;20213;-65
2022/02/12 10:35:37;;;;;;;16.20;5.83;;;16.10;55.30;;;;;;5044373;28;20542;-66
2022/02/12 10:38:12;;;;;;;21.23;6.17;;;16.10;55.50;;;;;;5043975;28;20304;-67
2022/02/12 10:41:12;;;;;;;16.73;6.00;;;16.10;55.70;;;;;;5045878;28;20216;-66
2022/02/12 10:43:43;;;;;;;13.23;4.77;;;16.10;55.60;;;;;;5064978;28;20194;-66
2022/02/12 10:46:11;;;;;;;14.20;4.63;;;16.10;55.00;;;;;;5058248;28;20196;-66
2022/02/12 10:48:43;;;;;;;10.47;4.20;;;16.10;54.60;;;;;;5029438;28;20305;-67
2022/02/12 10:51:15;;;;;;;12.70;4.43;;;16.10;54.50;;;;;;5049115;28;20214;-67
2022/02/12 10:54:06;;;;;;;9.67;4.10;;;16.10;54.40;;;;;;5068651;28;20202;-67
2022/02/12 10:56:57;;;;;;;8.77;3.83;;;16.10;54.20;;;;;;5048730;28;20872;-67
2022/02/12 10:59:31;;;;;;;12.93;3.87;;;16.10;54.10;;;;;;5057917;28;20209;-66
2022/02/12 11:02:00;;;;;;;9.63;3.40;;;16.10;54.10;;;;;;5060145;28;20198;-67
2022/02/12 11:04:31;;;;;;;7.50;3.20;;;16.10;54.00;;;;;;5056147;28;20209;-66
2022/02/12 11:07:05;;;;;;;9.17;4.33;;;16.10;54.00;;;;;;5051472;28;20210;-66
2022/02/12 11:09:36;;;;;;;8.57;3.77;;;16.10;54.00;;;;;;5065677;28;20802;-66
2022/02/12 11:12:04;;;;;;;9.10;4.00;;;16.10;54.00;;;;;;5047863;28;20214;-68
2022/02/12 11:14:37;;;;;;;9.53;4.10;;;16.10;54.00;;;;;;5074409;28;20301;-68
2022/02/12 11:17:18;;;;;;;8.80;4.17;;;16.10;54.00;;;;;;5048459;28;20225;-68
2022/02/12 11:20:01;;;;;;;6.70;3.57;;;16.10;54.00;;;;;;5049153;28;20290;-68
2022/02/12 11:22:40;;;;;;;11.40;4.13;;;16.10;53.90;;;;;;5047076;28;20205;-68
2022/02/12 11:25:35;;;;;;;7.47;3.73;;;16.10;53.90;;;;;;5051581;28;20325;-66
2022/02/12 11:28:12;;;;;;;7.40;3.70;;;16.10;53.90;;;;;;5030153;28;20291;-67
2022/02/12 11:30:44;;;;;;;7.83;3.63;;;16.10;54.60;;;;;;5044973;28;20560;-65
2022/02/12 11:33:24;;;;;;;10.50;3.53;;;16.20;55.30;;;;;;5059306;28;20783;-69
2022/02/12 11:36:12;;;;;;;4.70;2.87;;;16.20;55.40;;;;;;5055178;28;20236;-68
2022/02/12 11:38:47;;;;;;;6.67;3.07;;;16.20;56.10;;;;;;5058467;28;20208;-68
2022/02/12 11:41:27;;;;;;;9.13;3.33;;;16.20;56.10;;;;;;5061391;28;20372;-68
2022/02/12 11:43:59;;;;;;;7.30;3.00;;;16.20;55.80;;;;;;5055420;28;20214;-68
2022/02/12 11:46:50;;;;;;;5.93;2.90;;;16.20;55.90;;;;;;5061783;28;20190;-67
2022/02/12 11:49:35;;;;;;;8.10;3.07;;;16.20;56.00;;;;;;5054606;28;20221;-67
2022/02/12 11:52:24;;;;;;;7.60;2.60;;;16.20;56.50;;;;;;5060206;28;20200;-68
2022/02/12 11:54:57;;;;;;;7.30;3.00;;;16.20;56.70;;;;;;5057187;28;20194;-68
2022/02/12 11:57:32;;;;;;;4.47;2.93;;;16.20;56.50;;;;;;5081396;28;20265;-67
2022/02/12 12:00:05;;;;;;;4.77;2.43;;;16.20;56.20;;;;;;5075644;28;20202;-67
2022/02/12 12:02:42;;;;;;;5.37;2.47;;;16.20;56.60;;;;;;5056409;28;20746;-67
2022/02/12 12:05:19;;;;;;;6.23;2.83;;;16.20;56.30;;;;;;5064025;28;20204;-71
2022/02/12 12:08:01;;;;;;;6.60;2.37;;;16.20;56.50;;;;;;5060848;28;20976;-71
2022/02/12 12:10:34;;;;;;;5.33;2.40;;;16.20;56.80;;;;;;5065170;28;20201;-66
2022/02/12 12:13:25;;;;;;;7.03;3.00;;;16.20;57.60;;;;;;5042342;28;20243;-66
2022/02/12 12:16:14;;;;;;;7.13;2.50;;;16.30;57.00;;;;;;5059427;28;20226;-68
2022/02/12 12:18:50;;;;;;;6.90;2.97;;;16.20;57.70;;;;;;5066317;28;20217;-67
2022/02/12 12:21:20;;;;;;;6.30;2.40;;;16.30;60.10;;;;;;5064144;28;20217;-69
2022/02/12 12:23:59;;;;;;;7.27;3.10;;;16.30;59.70;;;;;;5058709;28;20214;-66
2022/02/12 12:26:42;;;;;;;4.23;2.40;;;16.30;59.40;;;;;;5054029;28;20208;-67
2022/02/12 12:32:15;;;;;;;7.70;2.90;;;16.30;58.20;;;;;;5065363;28;20217;-67
2022/02/12 12:34:54;;;;;;;6.47;2.60;;;16.40;57.80;;;;;;5048722;28;20197;-67
2022/02/12 12:37:26;;;;;;;5.37;2.27;;;16.40;58.10;;;;;;5047139;28;20240;-66
2022/02/12 12:40:10;;;;;;;5.60;2.20;;;16.30;58.00;;;;;;5064104;28;20219;-66
2022/02/12 12:42:41;;;;;;;4.07;2.40;;;16.30;57.60;;;;;;5063604;28;20631;-68
2022/02/12 12:45:16;;;;;;;8.17;3.50;;;16.30;57.60;;;;;;5065268;28;20196;-67
2022/02/12 12:47:51;;;;;;;6.70;2.90;;;16.30;58.20;;;;;;5064396;28;20210;-67
2022/02/12 12:50:23;;;;;;;6.30;3.10;;;16.40;57.30;;;;;;5044973;28;20212;-68
2022/02/12 12:53:10;;;;;;;4.70;2.90;;;16.30;57.20;;;;;;5036429;28;20308;-67
2022/02/12 12:56:02;;;;;;;6.27;3.30;;;16.40;56.70;;;;;;5067299;28;20309;-66
2022/02/12 12:58:36;;;;;;;6.03;2.90;;;16.40;56.60;;;;;;5060477;28;20202;-66
2022/02/12 13:01:10;;;;;;;5.10;2.33;;;16.30;57.20;;;;;;5039565;28;20224;-66
2022/02/12 13:03:48;;;;;;;4.40;2.57;;;16.40;57.60;;;;;;5047305;28;20530;-67
2022/02/12 13:06:16;;;;;;;6.37;2.47;;;16.40;57.20;;;;;;5063903;28;20267;-67
2022/02/12 13:08:46;;;;;;;4.13;2.27;;;16.40;56.90;;;;;;5068682;28;20210;-66
2022/02/12 13:11:33;;;;;;;3.57;2.63;;;16.40;57.30;;;;;;5059735;28;20196;-66
2022/02/12 13:14:17;;;;;;;3.47;1.90;;;16.40;57.10;;;;;;5061818;28;20262;-66
2022/02/12 13:16:58;;;;;;;6.27;2.80;;;16.40;57.20;;;;;;5027683;28;20242;-66
2022/02/12 13:19:29;;;;;;;5.53;2.40;;;16.40;56.80;;;;;;5040444;28;20205;-67
2022/02/12 13:22:05;;;;;;;4.40;1.87;;;16.40;57.20;;;;;;5045204;28;20190;-67
2022/02/12 13:24:58;;;;;;;4.97;2.20;;;16.40;56.70;;;;;;5035107;28;20697;-68
2022/02/12 13:27:31;;;;;;;3.93;1.97;;;16.40;56.80;;;;;;5022616;28;20903;-67